Chacabuco, Argentina
Current Conditions -  °F | °C
As of 9:00 AM on Friday 31 Oct 2014 (Local Time) from SADF Reporting Station
Broken Clouds Broken Clouds  
Wind Chill: 20°   Ceiling: 10000
Heat Index: 20°   Visibility: 6mi
Dew Point: 15°   Wind: 6mph
Humidity: 73%   Direction: 140°SE
Pressure: 29.94"   Gusts: NA
Location:  34.63°S, 60.48°W
Report Text: SADF 311200Z 14005KT 9999 SCT015 BKN100 20/15 Q1014
Loading
Personal Weather Stations






























Interactive Weather Map
Tropical Storm Tracking
New forecast layout! Learn more

10-Day Weather Forecast

Advertisements
Track Severe Weather on mobile